Time;durP1;ratioP1;P1;durP2;ratioP2;P2;SDS_P1;SDS_P2;PMS_P1;PMS_P2;Temp;Humidity;BMP_temperature;BMP_pressure;BME280_temperature;BME280_humidity;BME280_pressure;Samples;Min_cycle;Max_cycle;Signal;HPM_P1;HPM_P2
2022/03/26 00:01:56;;;;;;;4.32;3.83;;;18.40;51.80;;;;;;5051602;28;20263;-72
2022/03/26 00:04:21;;;;;;;6.57;4.07;;;18.30;51.80;;;;;;5051303;28;20253;-72
2022/03/26 00:06:47;;;;;;;4.57;4.05;;;18.30;51.80;;;;;;5050944;28;20171;-72
2022/03/26 00:09:12;;;;;;;4.32;3.92;;;18.30;51.80;;;;;;5051527;28;20206;-71
2022/03/26 00:11:38;;;;;;;4.40;4.00;;;18.30;51.80;;;;;;5051591;28;20183;-73
2022/03/26 00:14:03;;;;;;;4.57;3.85;;;18.30;51.80;;;;;;5050872;28;20540;-73
2022/03/26 00:16:29;;;;;;;4.55;3.88;;;18.30;51.70;;;;;;5051163;28;20483;-74
2022/03/26 00:18:54;;;;;;;4.25;3.85;;;18.30;51.80;;;;;;5051578;28;20272;-73
2022/03/26 00:21:20;;;;;;;4.20;3.90;;;18.30;51.80;;;;;;5050670;28;20260;-74
2022/03/26 00:23:46;;;;;;;4.72;4.32;;;18.30;51.80;;;;;;5053450;28;20257;-75
2022/03/26 00:26:11;;;;;;;5.05;4.03;;;18.30;51.80;;;;;;5053350;28;20636;-74
2022/03/26 00:28:37;;;;;;;4.25;3.85;;;18.20;51.80;;;;;;5051017;28;20261;-72
2022/03/26 00:31:04;;;;;;;5.43;4.25;;;18.20;51.80;;;;;;5051584;28;20178;-72
2022/03/26 00:33:29;;;;;;;5.60;4.35;;;18.20;51.80;;;;;;5050852;28;20642;-72
2022/03/26 00:35:55;;;;;;;4.78;4.38;;;18.20;51.80;;;;;;5050894;28;20183;-73
2022/03/26 00:38:21;;;;;;;4.53;4.13;;;18.20;51.80;;;;;;5049851;28;20673;-73
2022/03/26 00:40:46;;;;;;;4.85;4.40;;;18.20;51.80;;;;;;5051383;28;20270;-73
2022/03/26 00:43:12;;;;;;;4.32;3.97;;;18.20;51.80;;;;;;5050337;28;20225;-73
2022/03/26 00:45:37;;;;;;;4.53;4.07;;;18.20;51.70;;;;;;5051349;28;20542;-72
2022/03/26 00:48:03;;;;;;;4.07;3.78;;;18.20;51.80;;;;;;5053773;28;20329;-73
2022/03/26 00:50:29;;;;;;;4.45;3.88;;;18.20;51.80;;;;;;5054225;28;20178;-73
2022/03/26 00:52:54;;;;;;;4.47;4.07;;;18.20;51.80;;;;;;5055222;28;20170;-73
2022/03/26 00:55:20;;;;;;;5.00;4.20;;;18.20;51.80;;;;;;5054209;28;20175;-74
2022/03/26 00:57:45;;;;;;;4.47;4.07;;;18.10;51.80;;;;;;5055291;28;20194;-74
2022/03/26 01:00:12;;;;;;;4.97;4.47;;;18.10;51.80;;;;;;5054565;28;20226;-74
2022/03/26 01:02:37;;;;;;;5.47;4.78;;;18.10;51.80;;;;;;5054111;28;20190;-73
2022/03/26 01:05:04;;;;;;;4.57;4.10;;;18.10;51.70;;;;;;5055219;28;20179;-72
2022/03/26 01:07:29;;;;;;;4.90;4.43;;;18.10;51.70;;;;;;5054517;28;20183;-72
2022/03/26 01:09:55;;;;;;;4.10;3.70;;;18.10;51.70;;;;;;5054263;28;20553;-72
2022/03/26 01:12:21;;;;;;;4.97;4.47;;;18.10;51.70;;;;;;5054347;28;20542;-73
2022/03/26 01:14:47;;;;;;;4.50;4.10;;;18.10;51.70;;;;;;5054970;28;20175;-73
2022/03/26 01:17:13;;;;;;;5.15;4.65;;;18.10;51.70;;;;;;5053597;28;20175;-74
2022/03/26 01:19:38;;;;;;;4.65;4.25;;;18.10;51.70;;;;;;5054565;28;20269;-74
2022/03/26 01:22:04;;;;;;;5.18;4.68;;;18.10;52.40;;;;;;5054572;28;20197;-74
2022/03/26 01:24:30;;;;;;;4.68;4.18;;;18.10;51.70;;;;;;5053666;28;20177;-73
2022/03/26 01:26:55;;;;;;;4.50;4.10;;;18.10;51.80;;;;;;5054607;28;20195;-74
2022/03/26 01:29:24;;;;;;;5.10;4.60;;;18.00;51.70;;;;;;5054153;28;20190;-73
2022/03/26 01:31:49;;;;;;;4.38;3.97;;;18.00;51.70;;;;;;5053554;28;20324;-72
2022/03/26 01:34:15;;;;;;;4.72;4.32;;;18.00;51.70;;;;;;5054268;28;20205;-73
2022/03/26 01:36:41;;;;;;;5.32;4.78;;;18.00;51.70;;;;;;5054520;28;20178;-73
2022/03/26 01:39:07;;;;;;;4.90;4.40;;;18.00;51.70;;;;;;5053331;28;20576;-74
2022/03/26 01:41:33;;;;;;;5.05;4.53;;;18.00;51.70;;;;;;5054548;28;20626;-73
2022/03/26 01:43:59;;;;;;;4.78;4.32;;;18.00;51.70;;;;;;5054317;28;20195;-73
2022/03/26 01:46:24;;;;;;;6.18;4.25;;;18.00;51.70;;;;;;5053122;28;20579;-73
2022/03/26 01:48:50;;;;;;;5.35;4.50;;;18.00;51.70;;;;;;5054522;28;20175;-73
2022/03/26 01:51:16;;;;;;;4.43;3.97;;;18.00;51.70;;;;;;5053805;28;20517;-73
2022/03/26 01:53:43;;;;;;;4.93;4.53;;;17.90;51.70;;;;;;5053479;28;20264;-73
2022/03/26 01:56:09;;;;;;;4.90;4.38;;;17.90;51.70;;;;;;5053709;28;20193;-75
2022/03/26 01:58:34;;;;;;;5.35;4.50;;;17.90;51.70;;;;;;5050183;28;20227;-73
2022/03/26 02:01:00;;;;;;;5.00;4.50;;;17.90;51.70;;;;;;5053778;28;20202;-74
2022/03/26 02:03:25;;;;;;;4.70;4.30;;;17.90;51.70;;;;;;5053645;28;20218;-73
2022/03/26 02:05:52;;;;;;;4.47;4.03;;;17.90;51.70;;;;;;5052910;28;20171;-73
2022/03/26 02:08:18;;;;;;;4.85;4.20;;;17.90;51.70;;;;;;5053618;28;20191;-73
2022/03/26 02:10:43;;;;;;;5.20;4.75;;;17.90;51.70;;;;;;5053608;28;20652;-73
2022/03/26 02:13:09;;;;;;;5.47;4.22;;;17.90;51.70;;;;;;5052674;28;20186;-74
2022/03/26 02:15:36;;;;;;;5.30;4.40;;;17.90;51.70;;;;;;5053559;28;20245;-74
2022/03/26 02:18:01;;;;;;;4.38;3.97;;;17.90;51.70;;;;;;5053400;28;20508;-74
2022/03/26 02:20:27;;;;;;;5.00;4.55;;;17.90;51.70;;;;;;5052376;28;20218;-74
2022/03/26 02:22:52;;;;;;;6.00;5.10;;;17.90;51.70;;;;;;5053541;28;20485;-74
2022/03/26 02:25:18;;;;;;;5.13;4.63;;;17.80;51.60;;;;;;5052928;28;20202;-74
2022/03/26 02:27:43;;;;;;;6.15;4.93;;;17.80;51.60;;;;;;5052750;28;20262;-73
2022/03/26 02:30:09;;;;;;;5.05;4.55;;;17.80;51.60;;;;;;5052923;28;20185;-75
2022/03/26 02:32:34;;;;;;;5.50;4.75;;;17.80;51.60;;;;;;5053215;28;20171;-73
2022/03/26 02:35:00;;;;;;;4.93;4.47;;;17.80;51.60;;;;;;5052411;28;20642;-73
2022/03/26 02:37:26;;;;;;;5.10;4.35;;;17.80;51.60;;;;;;5052979;28;20183;-74
2022/03/26 02:39:51;;;;;;;5.10;4.60;;;17.80;51.60;;;;;;5053150;28;20230;-73
2022/03/26 02:42:17;;;;;;;5.82;5.00;;;17.80;51.60;;;;;;5052185;28;20299;-75
2022/03/26 02:44:42;;;;;;;5.57;5.07;;;17.80;51.70;;;;;;5052971;28;20187;-73
2022/03/26 02:47:09;;;;;;;4.82;4.43;;;17.80;51.60;;;;;;5052518;28;20178;-73
2022/03/26 02:49:35;;;;;;;5.72;4.78;;;17.80;51.60;;;;;;5052137;28;20665;-73
2022/03/26 02:52:00;;;;;;;5.60;4.78;;;17.80;51.60;;;;;;5052952;28;20179;-73
2022/03/26 02:54:26;;;;;;;4.80;4.40;;;17.80;51.60;;;;;;5052550;28;20207;-74
2022/03/26 02:56:53;;;;;;;5.30;4.50;;;17.80;51.60;;;;;;5052489;28;20175;-74
2022/03/26 02:59:19;;;;;;;4.82;4.40;;;17.80;51.60;;;;;;5052079;28;20705;-74
2022/03/26 03:01:45;;;;;;;5.43;4.93;;;17.70;51.60;;;;;;5052851;28;20182;-74
2022/03/26 03:04:10;;;;;;;5.50;5.00;;;17.70;51.60;;;;;;5051919;28;20179;-74
2022/03/26 03:06:36;;;;;;;5.40;4.85;;;17.70;51.60;;;;;;5052750;28;20191;-73
2022/03/26 03:09:02;;;;;;;5.20;4.68;;;17.70;51.60;;;;;;5051876;28;20186;-72
2022/03/26 03:11:28;;;;;;;5.43;4.93;;;17.70;51.60;;;;;;5051888;28;20187;-73
2022/03/26 03:13:53;;;;;;;4.97;4.47;;;17.70;51.60;;;;;;5052430;28;20396;-73
2022/03/26 03:16:19;;;;;;;5.03;4.63;;;17.70;51.60;;;;;;5051672;28;20199;-74
2022/03/26 03:18:44;;;;;;;5.28;4.88;;;17.70;51.60;;;;;;5052266;28;20681;-75
2022/03/26 03:21:10;;;;;;;5.20;4.70;;;17.70;51.50;;;;;;5052054;28;20175;-74
2022/03/26 03:23:35;;;;;;;5.10;4.63;;;17.70;51.60;;;;;;5051649;28;20186;-73
2022/03/26 03:26:02;;;;;;;6.00;5.13;;;17.70;51.60;;;;;;5052374;28;20175;-73
2022/03/26 03:28:27;;;;;;;5.25;4.75;;;17.70;51.60;;;;;;5051803;28;20536;-74
2022/03/26 03:30:53;;;;;;;6.00;5.10;;;17.70;51.50;;;;;;5051585;28;20182;-73
2022/03/26 03:33:18;;;;;;;5.80;5.28;;;17.60;51.50;;;;;;5051791;28;20266;-72
2022/03/26 03:35:44;;;;;;;5.50;4.97;;;17.60;51.50;;;;;;5052257;28;20179;-73
2022/03/26 03:38:09;;;;;;;5.30;4.80;;;17.60;51.50;;;;;;5050968;28;20170;-74
2022/03/26 03:40:35;;;;;;;6.93;5.28;;;17.60;51.50;;;;;;5052420;28;20221;-74
2022/03/26 03:43:00;;;;;;;6.20;5.60;;;17.60;51.50;;;;;;5051990;28;20582;-74
2022/03/26 03:45:26;;;;;;;6.00;5.40;;;17.60;51.50;;;;;;5051086;28;20539;-73
2022/03/26 03:47:51;;;;;;;4.78;4.40;;;17.60;51.50;;;;;;5051936;28;20189;-73
2022/03/26 03:50:17;;;;;;;6.03;5.40;;;17.60;51.50;;;;;;5051762;28;20187;-73
2022/03/26 03:52:43;;;;;;;6.28;5.03;;;17.60;51.50;;;;;;5051334;28;20194;-73
2022/03/26 03:55:08;;;;;;;6.00;5.40;;;17.60;51.50;;;;;;5051461;28;20171;-74
2022/03/26 03:57:34;;;;;;;6.65;5.00;;;17.60;51.50;;;;;;5051764;28;20183;-75
2022/03/26 04:00:02;;;;;;;6.13;5.47;;;17.60;51.50;;;;;;5051557;28;20360;-74
2022/03/26 04:02:29;;;;;;;6.18;5.03;;;17.60;51.50;;;;;;5051753;28;20197;-73
2022/03/26 04:04:55;;;;;;;6.38;5.68;;;17.60;51.50;;;;;;5051805;28;20351;-73
2022/03/26 04:07:21;;;;;;;5.68;5.18;;;17.60;52.20;;;;;;5050775;28;20175;-73
2022/03/26 04:09:46;;;;;;;5.25;4.75;;;17.50;51.50;;;;;;5051695;28;20546;-73
2022/03/26 04:12:12;;;;;;;6.05;5.30;;;17.60;51.50;;;;;;5050614;28;20175;-74
2022/03/26 04:14:43;;;;;;;6.75;5.35;;;17.50;51.50;;;;;;5051667;28;20182;-74
2022/03/26 04:17:09;;;;;;;5.53;5.03;;;17.50;51.40;;;;;;5051461;28;20288;-75
2022/03/26 04:19:34;;;;;;;6.05;5.45;;;17.50;51.50;;;;;;5050948;28;20253;-74
2022/03/26 04:22:00;;;;;;;6.13;5.53;;;17.50;51.40;;;;;;5050775;28;20178;-73
2022/03/26 04:24:25;;;;;;;5.30;4.80;;;17.50;51.50;;;;;;5051328;28;20194;-74
2022/03/26 04:26:51;;;;;;;5.90;5.38;;;17.50;51.50;;;;;;5050713;28;20194;-74
2022/03/26 04:29:17;;;;;;;5.22;4.72;;;17.50;51.50;;;;;;5051443;28;20232;-73
2022/03/26 04:31:43;;;;;;;6.63;5.93;;;17.50;51.40;;;;;;5051599;28;20179;-73
2022/03/26 04:34:08;;;;;;;6.28;5.70;;;17.50;51.50;;;;;;5050215;28;20163;-74
2022/03/26 04:36:34;;;;;;;7.03;6.32;;;17.50;51.40;;;;;;5051553;28;20175;-72
2022/03/26 04:38:59;;;;;;;6.10;5.50;;;17.50;51.40;;;;;;5051200;28;20214;-74
2022/03/26 04:41:25;;;;;;;6.22;5.63;;;17.50;51.40;;;;;;5050272;28;20601;-73
2022/03/26 04:43:51;;;;;;;6.45;5.85;;;17.40;51.40;;;;;;5051637;28;20183;-73
2022/03/26 04:46:16;;;;;;;6.13;5.57;;;17.40;51.40;;;;;;5051296;28;20221;-74
2022/03/26 04:48:42;;;;;;;6.60;5.60;;;17.40;51.40;;;;;;5050703;28;20175;-72
2022/03/26 04:51:07;;;;;;;6.68;5.72;;;17.40;51.40;;;;;;5050893;28;20171;-73
2022/03/26 04:53:33;;;;;;;6.00;5.40;;;17.40;51.40;;;;;;5051329;28;20282;-73
2022/03/26 04:55:58;;;;;;;6.35;5.65;;;17.40;51.40;;;;;;5050374;28;20518;-74
2022/03/26 04:58:24;;;;;;;6.53;5.85;;;17.40;51.40;;;;;;5050810;28;20347;-75
2022/03/26 05:00:49;;;;;;;6.32;5.72;;;17.40;51.40;;;;;;5051264;28;20182;-74
2022/03/26 05:03:15;;;;;;;7.10;5.80;;;17.40;51.40;;;;;;5050109;28;20220;-73
2022/03/26 05:05:40;;;;;;;7.40;6.10;;;17.40;51.40;;;;;;5051204;28;20183;-73
2022/03/26 05:08:06;;;;;;;6.63;5.60;;;17.40;51.40;;;;;;5051019;28;20214;-74
2022/03/26 05:10:32;;;;;;;6.68;5.97;;;17.30;51.30;;;;;;5050301;28;20259;-73
2022/03/26 05:12:58;;;;;;;7.05;5.72;;;17.40;51.40;;;;;;5051369;28;20225;-74
2022/03/26 05:15:24;;;;;;;6.82;6.13;;;17.40;51.30;;;;;;5050894;28;20298;-74
2022/03/26 05:17:50;;;;;;;6.55;5.95;;;17.30;51.30;;;;;;5050676;28;20307;-74
2022/03/26 05:20:15;;;;;;;6.43;5.82;;;17.30;51.40;;;;;;5050589;28;20211;-75
2022/03/26 05:22:41;;;;;;;6.65;6.03;;;17.30;51.40;;;;;;5050416;28;20175;-73
2022/03/26 05:25:08;;;;;;;6.93;6.22;;;17.30;51.30;;;;;;5050420;28;20622;-74
2022/03/26 05:27:34;;;;;;;7.43;6.05;;;17.30;51.40;;;;;;5050780;28;20209;-73
2022/03/26 05:29:59;;;;;;;7.43;6.72;;;17.30;51.40;;;;;;5050109;28;20252;-73
2022/03/26 05:32:25;;;;;;;7.65;6.40;;;17.30;51.30;;;;;;5050697;28;20190;-73
2022/03/26 05:34:50;;;;;;;7.15;6.45;;;17.30;51.40;;;;;;5054040;28;20175;-72
2022/03/26 05:37:16;;;;;;;7.07;6.38;;;17.30;51.30;;;;;;5053431;28;20175;-74
2022/03/26 05:39:41;;;;;;;6.85;6.15;;;17.30;51.30;;;;;;5054323;28;20305;-73
2022/03/26 05:42:07;;;;;;;6.90;6.25;;;17.30;51.30;;;;;;5053987;28;20182;-75
2022/03/26 05:44:33;;;;;;;8.15;6.40;;;17.30;51.40;;;;;;5053688;28;20179;-74
2022/03/26 05:46:59;;;;;;;7.75;6.95;;;17.30;51.30;;;;;;5054188;28;20163;-74
2022/03/26 05:49:25;;;;;;;7.30;6.60;;;17.30;51.30;;;;;;5054035;28;20195;-73
2022/03/26 05:51:50;;;;;;;7.65;6.50;;;17.30;51.30;;;;;;5053642;28;20218;-73
2022/03/26 05:54:16;;;;;;;7.00;6.30;;;17.30;51.30;;;;;;5053691;28;20182;-74
2022/03/26 05:56:51;;;;;;;7.35;6.70;;;17.30;51.30;;;;;;5053934;28;20711;-74
2022/03/26 05:59:17;;;;;;;6.53;5.93;;;17.30;51.30;;;;;;5052684;28;20238;-74
2022/03/26 06:01:42;;;;;;;7.40;6.70;;;17.30;51.30;;;;;;5054255;28;20228;-75
2022/03/26 06:04:08;;;;;;;7.22;6.53;;;17.20;51.20;;;;;;5053489;28;20179;-74
2022/03/26 06:06:33;;;;;;;7.22;6.53;;;17.30;51.30;;;;;;5053100;28;20491;-73
2022/03/26 06:08:59;;;;;;;7.68;6.72;;;17.30;51.20;;;;;;5053737;28;20175;-74
2022/03/26 06:11:24;;;;;;;8.18;6.85;;;17.20;51.20;;;;;;5053193;28;20179;-74
2022/03/26 06:13:50;;;;;;;7.82;7.03;;;17.30;51.30;;;;;;5053101;28;20175;-74
2022/03/26 06:16:15;;;;;;;7.55;6.75;;;17.20;51.10;;;;;;5053326;28;20550;-75
2022/03/26 06:18:42;;;;;;;6.80;6.18;;;17.20;51.10;;;;;;5053471;28;20198;-73
2022/03/26 06:21:07;;;;;;;8.10;6.95;;;17.30;51.30;;;;;;5052964;28;20175;-75
2022/03/26 06:23:33;;;;;;;7.43;6.63;;;17.20;51.10;;;;;;5053518;28;20171;-74
2022/03/26 06:25:58;;;;;;;7.45;6.75;;;17.30;51.20;;;;;;5052715;28;20316;-73
2022/03/26 06:28:24;;;;;;;9.30;8.30;;;17.30;51.10;;;;;;5053374;28;20301;-75
2022/03/26 06:30:50;;;;;;;7.53;6.70;;;17.20;51.10;;;;;;5053315;28;20241;-74
2022/03/26 06:33:16;;;;;;;6.97;6.28;;;17.20;51.10;;;;;;5052246;28;20179;-73
2022/03/26 06:35:46;;;;;;;7.97;7.18;;;17.30;51.10;;;;;;5053337;28;20182;-73
2022/03/26 06:38:15;;;;;;;8.43;7.28;;;17.30;51.10;;;;;;5052812;28;20207;-73
2022/03/26 06:40:41;;;;;;;7.53;6.82;;;17.30;51.10;;;;;;5052767;28;20252;-73
2022/03/26 06:43:07;;;;;;;7.97;7.18;;;17.30;51.10;;;;;;5052857;28;20163;-74
2022/03/26 06:45:32;;;;;;;7.43;6.57;;;17.30;51.10;;;;;;5051085;28;20183;-73
2022/03/26 06:47:58;;;;;;;7.75;6.80;;;17.30;51.00;;;;;;5052402;28;20313;-74
2022/03/26 06:50:24;;;;;;;7.93;7.13;;;17.30;51.00;;;;;;5052675;28;20183;-74
2022/03/26 06:52:49;;;;;;;7.60;6.80;;;17.30;50.90;;;;;;5052837;28;20183;-74
2022/03/26 06:55:15;;;;;;;8.07;7.28;;;17.30;50.90;;;;;;5052277;28;20171;-74
2022/03/26 06:57:44;;;;;;;8.30;7.28;;;17.30;50.90;;;;;;5052710;28;20183;-73
2022/03/26 07:00:11;;;;;;;7.95;7.15;;;17.40;50.90;;;;;;5052191;28;20227;-72
2022/03/26 07:02:36;;;;;;;7.93;7.13;;;17.40;50.90;;;;;;5052003;28;20207;-71
2022/03/26 07:05:06;;;;;;;7.05;6.43;;;17.40;50.80;;;;;;5052734;28;20183;-72
2022/03/26 07:07:31;;;;;;;7.75;7.00;;;17.40;50.80;;;;;;5052605;28;20175;-72
2022/03/26 07:09:58;;;;;;;7.90;7.05;;;17.40;50.70;;;;;;5052175;28;20254;-74
2022/03/26 07:12:26;;;;;;;7.35;6.68;;;17.40;50.70;;;;;;5052400;28;20178;-75
2022/03/26 07:14:52;;;;;;;7.53;6.63;;;17.50;50.70;;;;;;5052844;28;20506;-75
2022/03/26 07:17:18;;;;;;;7.53;6.82;;;17.50;50.60;;;;;;5051577;28;20250;-75
2022/03/26 07:19:51;;;;;;;7.55;6.85;;;17.50;50.60;;;;;;5052235;28;20613;-75
2022/03/26 07:22:17;;;;;;;7.13;6.38;;;17.50;50.50;;;;;;5051505;28;20278;-76
2022/03/26 07:24:42;;;;;;;7.38;6.78;;;17.50;50.50;;;;;;5052667;28;20181;-75
2022/03/26 07:27:11;;;;;;;6.80;6.30;;;17.50;50.50;;;;;;5052001;28;20258;-75
2022/03/26 07:29:39;;;;;;;7.40;6.70;;;17.50;50.50;;;;;;5051522;28;20229;-72
2022/03/26 07:32:08;;;;;;;7.35;6.65;;;17.60;50.60;;;;;;5052741;28;20229;-70
2022/03/26 07:34:34;;;;;;;7.30;6.60;;;17.60;50.50;;;;;;5052247;28;20187;-69
2022/03/26 07:37:00;;;;;;;8.15;7.38;;;17.70;50.50;;;;;;5051361;28;20333;-71
2022/03/26 07:39:26;;;;;;;7.93;7.18;;;17.80;50.60;;;;;;5051798;28;20219;-67
2022/03/26 07:41:51;;;;;;;7.60;6.65;;;17.90;50.40;;;;;;5051549;28;20175;-70
2022/03/26 07:44:17;;;;;;;6.93;6.22;;;17.90;50.40;;;;;;5051003;28;20197;-71
2022/03/26 07:46:43;;;;;;;9.43;7.00;;;18.00;50.40;;;;;;5052045;28;20187;-72
2022/03/26 07:49:09;;;;;;;8.13;6.72;;;18.00;50.90;;;;;;5051611;28;20190;-73
2022/03/26 07:51:35;;;;;;;9.57;7.47;;;18.10;50.30;;;;;;5051548;28;20220;-73
2022/03/26 07:54:00;;;;;;;7.50;6.70;;;18.10;50.40;;;;;;5051964;28;20536;-75
2022/03/26 07:56:26;;;;;;;8.13;6.80;;;18.10;50.60;;;;;;5051652;28;20183;-72
2022/03/26 07:58:51;;;;;;;11.93;6.90;;;18.10;50.80;;;;;;5051326;28;20229;-74
2022/03/26 08:01:17;;;;;;;7.93;7.13;;;18.10;51.00;;;;;;5051512;28;20175;-67
2022/03/26 08:03:42;;;;;;;8.20;6.97;;;18.10;51.10;;;;;;5051729;28;20703;-73
2022/03/26 08:06:08;;;;;;;10.25;6.82;;;18.10;51.10;;;;;;5050709;28;20250;-72
2022/03/26 08:08:33;;;;;;;7.68;6.38;;;18.10;51.10;;;;;;5051745;28;20228;-69
2022/03/26 08:10:59;;;;;;;10.85;7.38;;;18.20;51.20;;;;;;5051691;28;20232;-72
2022/03/26 08:13:25;;;;;;;8.35;6.85;;;18.20;51.20;;;;;;5050626;28;20930;-72
2022/03/26 08:15:50;;;;;;;8.48;6.68;;;18.20;51.20;;;;;;5051473;28;20198;-70
2022/03/26 08:18:16;;;;;;;7.47;6.65;;;18.20;51.20;;;;;;5050957;28;20174;-74
2022/03/26 08:20:43;;;;;;;8.73;6.40;;;18.30;51.30;;;;;;5050808;28;20579;-72
2022/03/26 08:23:08;;;;;;;6.68;5.65;;;18.30;51.30;;;;;;5050980;28;20490;-73
2022/03/26 08:28:18;;;;;;;10.30;6.55;;;18.30;51.30;;;;;;5050817;28;20648;-72
2022/03/26 08:30:43;;;;;;;7.65;6.68;;;18.40;51.40;;;;;;5051263;28;20262;-72
2022/03/26 08:33:09;;;;;;;7.72;6.38;;;18.40;51.40;;;;;;5050444;28;20181;-73
2022/03/26 08:35:35;;;;;;;7.03;6.25;;;18.40;51.40;;;;;;5051301;28;20197;-72
2022/03/26 08:38:01;;;;;;;7.35;6.40;;;18.40;51.50;;;;;;5051453;28;20199;-73
2022/03/26 08:40:27;;;;;;;7.47;6.38;;;18.40;51.50;;;;;;5050148;28;20614;-72
2022/03/26 08:42:52;;;;;;;9.35;6.43;;;18.40;51.50;;;;;;5051273;28;20242;-73
2022/03/26 08:45:19;;;;;;;7.00;6.05;;;18.50;51.60;;;;;;5050872;28;20183;-73
2022/03/26 08:47:50;;;;;;;6.60;5.95;;;18.50;51.60;;;;;;5050663;28;20289;-71
2022/03/26 08:50:16;;;;;;;10.65;7.28;;;18.60;51.60;;;;;;5051217;28;20271;-72
2022/03/26 08:52:41;;;;;;;9.88;6.82;;;18.50;51.30;;;;;;5051098;28;20175;-71
2022/03/26 08:55:08;;;;;;;8.65;6.25;;;18.50;51.20;;;;;;5050013;28;20533;-68
2022/03/26 08:57:33;;;;;;;7.03;6.07;;;18.60;51.30;;;;;;5051192;28;20230;-73
2022/03/26 08:59:59;;;;;;;9.95;5.97;;;18.60;51.30;;;;;;5050813;28;20287;-73
2022/03/26 09:02:24;;;;;;;8.43;6.30;;;18.60;51.30;;;;;;5050108;28;20300;-73
2022/03/26 09:04:50;;;;;;;6.50;5.90;;;18.60;51.30;;;;;;5051109;28;20301;-73
2022/03/26 09:07:15;;;;;;;8.90;6.05;;;18.60;51.30;;;;;;5050724;28;20171;-71
2022/03/26 09:09:41;;;;;;;7.10;5.90;;;18.70;51.40;;;;;;5053485;28;20171;-75
2022/03/26 09:12:07;;;;;;;8.15;6.68;;;18.70;51.30;;;;;;5053867;28;20207;-73
2022/03/26 09:14:33;;;;;;;7.25;6.10;;;18.70;51.40;;;;;;5053800;28;20198;-72
2022/03/26 09:16:58;;;;;;;6.47;5.80;;;18.70;51.50;;;;;;5054196;28;20176;-72
2022/03/26 09:19:24;;;;;;;7.22;5.53;;;18.70;51.40;;;;;;5053770;28;20218;-72
2022/03/26 09:21:50;;;;;;;6.93;5.47;;;18.80;51.40;;;;;;5053645;28;20183;-72
2022/03/26 09:24:16;;;;;;;7.50;5.63;;;18.80;51.40;;;;;;5054428;28;20255;-73
2022/03/26 09:26:42;;;;;;;6.05;5.45;;;18.80;51.50;;;;;;5054662;28;20175;-71
2022/03/26 09:29:08;;;;;;;7.88;5.70;;;18.80;51.40;;;;;;5053528;28;20190;-70
2022/03/26 09:31:33;;;;;;;6.60;6.00;;;18.80;51.40;;;;;;5054561;28;20179;-70
2022/03/26 09:33:59;;;;;;;6.97;5.43;;;18.90;51.40;;;;;;5054445;28;20535;-70
2022/03/26 09:36:24;;;;;;;7.28;6.10;;;18.80;51.40;;;;;;5053606;28;20203;-70
2022/03/26 09:38:50;;;;;;;5.97;5.40;;;18.90;51.40;;;;;;5054395;28;20301;-71
2022/03/26 09:41:16;;;;;;;6.03;5.53;;;18.90;51.40;;;;;;5054063;28;20584;-72
2022/03/26 09:43:42;;;;;;;6.05;4.93;;;18.90;51.30;;;;;;5052279;28;20637;-71
2022/03/26 09:46:07;;;;;;;5.85;5.30;;;18.90;51.30;;;;;;5054071;28;20186;-73
2022/03/26 09:48:33;;;;;;;6.07;5.57;;;18.90;51.30;;;;;;5054160;28;20186;-71
2022/03/26 09:50:59;;;;;;;7.32;5.22;;;19.00;51.30;;;;;;5052107;28;20187;-71
2022/03/26 09:53:25;;;;;;;4.90;4.50;;;19.00;51.30;;;;;;5036017;28;20206;-72
2022/03/26 09:55:51;;;;;;;5.85;4.88;;;19.00;51.30;;;;;;5036391;28;20175;-71
2022/03/26 09:58:17;;;;;;;5.57;4.90;;;19.00;51.30;;;;;;5052808;28;20187;-72
2022/03/26 10:00:42;;;;;;;6.13;5.47;;;19.10;51.30;;;;;;5053515;28;20211;-72
2022/03/26 10:03:08;;;;;;;6.95;4.85;;;19.00;51.20;;;;;;5053487;28;20164;-73
2022/03/26 10:05:34;;;;;;;6.53;5.32;;;19.00;51.30;;;;;;5052862;28;20202;-68
2022/03/26 10:08:19;;;;;;;5.95;5.20;;;19.10;51.30;;;;;;5053515;28;20175;-68
2022/03/26 10:10:45;;;;;;;5.15;4.70;;;19.10;51.40;;;;;;5050873;28;20179;-69
2022/03/26 10:13:11;;;;;;;5.15;4.68;;;19.10;51.40;;;;;;5052154;28;20630;-69
2022/03/26 10:15:37;;;;;;;4.45;4.05;;;19.20;51.50;;;;;;5053857;28;20547;-70
2022/03/26 10:18:09;;;;;;;5.63;4.60;;;19.20;51.40;;;;;;5053078;28;20648;-71
2022/03/26 10:20:34;;;;;;;5.32;4.80;;;19.20;51.50;;;;;;5052493;28;20218;-73
2022/03/26 10:23:00;;;;;;;5.03;4.57;;;19.20;51.50;;;;;;5052264;28;20171;-72
2022/03/26 10:25:25;;;;;;;5.05;4.60;;;19.20;51.50;;;;;;5052368;28;20633;-71
2022/03/26 10:27:52;;;;;;;5.28;4.18;;;19.30;51.50;;;;;;5052567;28;20175;-72
2022/03/26 10:32:38;;;;;;;5.13;4.68;;;19.30;51.60;;;;;;5053352;28;20194;-73
2022/03/26 10:33:21;;;;;;;5.30;4.88;;;19.30;51.60;;;;;;5052746;28;20179;-72
2022/03/26 10:35:56;;;;;;;4.80;4.40;;;19.30;51.60;;;;;;5053536;28;20206;-73
2022/03/26 10:38:38;;;;;;;5.00;4.50;;;19.40;51.60;;;;;;5053353;28;20174;-74
2022/03/26 10:41:07;;;;;;;5.10;4.55;;;19.30;51.50;;;;;;5052655;28;20547;-72
2022/03/26 10:43:33;;;;;;;4.85;4.45;;;19.40;51.60;;;;;;5053351;28;20171;-70
2022/03/26 10:46:00;;;;;;;5.85;4.97;;;19.40;51.60;;;;;;5052856;28;20561;-75
2022/03/26 10:48:35;;;;;;;4.85;4.45;;;19.40;51.50;;;;;;5052955;28;20191;-72
2022/03/26 10:51:15;;;;;;;5.15;4.57;;;19.40;51.50;;;;;;5053402;28;20183;-75
2022/03/26 10:53:42;;;;;;;5.10;4.28;;;19.40;51.50;;;;;;5051668;28;20171;-75
2022/03/26 10:56:12;;;;;;;6.72;4.38;;;19.40;51.50;;;;;;5052944;28;20266;-68
2022/03/26 10:58:40;;;;;;;4.60;4.20;;;19.50;51.40;;;;;;5052851;28;20253;-70
2022/03/26 11:01:06;;;;;;;6.28;4.40;;;19.50;51.40;;;;;;5052370;28;20183;-68
2022/03/26 11:03:32;;;;;;;8.63;4.60;;;19.50;51.50;;;;;;5053409;28;20654;-75
2022/03/26 11:05:57;;;;;;;6.15;4.65;;;19.50;51.50;;;;;;5052881;28;20203;-73
2022/03/26 11:08:23;;;;;;;5.47;4.72;;;19.50;51.60;;;;;;5051694;28;20262;-73
2022/03/26 11:10:55;;;;;;;8.23;4.60;;;19.50;51.60;;;;;;5052797;28;20317;-73
2022/03/26 11:13:21;;;;;;;5.90;4.90;;;19.50;51.60;;;;;;5052630;28;20183;-74
2022/03/26 11:15:49;;;;;;;7.18;4.50;;;19.50;51.60;;;;;;5034341;28;20175;-71
2022/03/26 11:18:38;;;;;;;8.57;4.45;;;19.50;51.60;;;;;;5052347;28;20294;-72
2022/03/26 11:21:19;;;;;;;5.50;4.50;;;19.50;51.50;;;;;;5052572;28;20227;-74
2022/03/26 11:24:13;;;;;;;5.88;4.55;;;19.50;51.50;;;;;;5051237;28;20236;-74
2022/03/26 11:26:53;;;;;;;4.57;4.18;;;19.50;51.50;;;;;;5036567;28;20190;-72
2022/03/26 11:29:46;;;;;;;6.95;4.05;;;19.60;51.60;;;;;;5034682;28;20184;-72
2022/03/26 11:32:20;;;;;;;6.25;4.47;;;19.50;51.40;;;;;;5052015;28;20188;-72
2022/03/26 11:34:50;;;;;;;6.40;4.45;;;19.60;51.50;;;;;;5035281;28;20175;-71
2022/03/26 11:37:21;;;;;;;5.93;4.72;;;19.60;51.50;;;;;;5050339;28;20180;-72
2022/03/26 11:39:48;;;;;;;7.07;4.00;;;19.70;51.50;;;;;;5052281;28;20312;-71
2022/03/26 11:42:14;;;;;;;5.43;4.00;;;19.70;51.50;;;;;;5051763;28;20237;-73
2022/03/26 11:50:40;;;;;;;5.10;4.03;;;19.70;51.50;;;;;;5051482;28;20828;-73
2022/03/26 11:53:08;;;;;;;5.32;4.05;;;19.70;51.40;;;;;;5052226;28;20186;-76
2022/03/26 11:55:47;;;;;;;6.45;3.92;;;19.70;51.40;;;;;;5051955;28;20598;-75
2022/03/26 11:58:21;;;;;;;5.85;4.22;;;19.70;51.40;;;;;;5050766;28;20191;-73
2022/03/26 12:01:00;;;;;;;4.97;4.13;;;19.70;51.40;;;;;;5051852;28;20653;-74
2022/03/26 12:03:28;;;;;;;4.70;4.30;;;19.70;51.40;;;;;;5051028;28;20242;-74
2022/03/26 12:08:57;;;;;;;7.25;4.32;;;19.70;51.30;;;;;;5052059;28;20186;-75
2022/03/26 12:11:29;;;;;;;4.80;4.38;;;19.70;51.30;;;;;;5050822;28;20207;-74
2022/03/26 12:14:07;;;;;;;5.50;3.80;;;19.80;51.30;;;;;;5052173;28;20187;-74
2022/03/26 12:16:50;;;;;;;5.10;4.25;;;19.80;51.10;;;;;;5051787;28;20179;-73
2022/03/26 12:19:35;;;;;;;4.85;4.13;;;19.80;51.10;;;;;;5050836;28;20207;-73
2022/03/26 12:22:21;;;;;;;4.90;4.50;;;19.90;51.00;;;;;;5051749;28;20175;-73
2022/03/26 12:24:47;;;;;;;4.35;3.95;;;19.90;51.00;;;;;;5051139;28;20901;-73
2022/03/26 12:27:13;;;;;;;4.80;3.65;;;19.90;51.00;;;;;;5051516;28;20547;-75
2022/03/26 12:29:39;;;;;;;4.60;4.18;;;19.90;51.00;;;;;;5051759;28;20175;-76
2022/03/26 12:32:05;;;;;;;4.32;3.92;;;19.90;50.90;;;;;;5050850;28;20189;-73
2022/03/26 12:34:31;;;;;;;4.35;3.65;;;20.00;50.90;;;;;;5051431;28;20187;-72
2022/03/26 12:37:03;;;;;;;4.35;3.90;;;20.00;50.90;;;;;;5051388;28;20187;-72
2022/03/26 12:39:28;;;;;;;3.78;3.53;;;20.00;50.80;;;;;;5049352;28;20214;-73
2022/03/26 12:41:55;;;;;;;4.22;3.75;;;20.00;50.70;;;;;;5051566;28;20582;-75
2022/03/26 12:44:22;;;;;;;4.28;3.88;;;20.00;50.80;;;;;;5054455;28;20258;-74
2022/03/26 12:46:48;;;;;;;5.95;4.10;;;20.00;50.80;;;;;;5054918;28;20175;-76
2022/03/26 12:49:17;;;;;;;4.45;4.05;;;20.00;50.80;;;;;;5055186;28;20182;-76
2022/03/26 12:51:43;;;;;;;3.70;3.40;;;20.00;50.80;;;;;;5055775;28;20594;-76
2022/03/26 12:54:09;;;;;;;4.47;4.07;;;20.10;50.70;;;;;;5054485;28;20618;-74
2022/03/26 12:56:34;;;;;;;4.05;3.72;;;20.10;50.70;;;;;;5055392;28;20236;-74